Time,TemperatureF,DewpointF,PressureIn,WindDirection,WindDirectionDegrees,WindSpeedMPH,WindSpeedGustMPH,Humidity,HourlyPrecipIn,Conditions,Clouds,dailyrainin,SoftwareType,DateUTC
2013-09-02 00:00:00,67.2,66.9,29.87,South,173,1.0,2.0,99,1.05,,---,1.79,VWS V13.00,2013-09-02 04:00:00,
2013-09-02 00:01:00,67.2,66.9,29.87,South,173,1.0,2.0,99,1.05,,---,1.80,VWS V13.00,2013-09-02 04:01:00,
2013-09-02 00:06:00,67.4,67.1,29.86,South,173,1.0,5.0,99,1.19,,---,0.00,VWS V13.00,2013-09-02 04:06:00,
2013-09-02 00:11:00,68.0,67.7,29.86,South,173,0.0,6.0,99,0.92,,---,0.12,VWS V13.00,2013-09-02 04:11:00,
2013-09-02 00:16:00,68.2,68.2,29.85,South,173,0.0,6.0,100,0.95,,---,0.15,VWS V13.00,2013-09-02 04:16:00,
2013-09-02 00:21:00,68.1,68.1,29.85,South,173,0.0,6.0,100,0.96,,---,0.16,VWS V13.00,2013-09-02 04:21:00,
2013-09-02 00:26:00,68.2,68.2,29.85,South,173,0.0,6.0,100,0.99,,---,0.19,VWS V13.00,2013-09-02 04:26:00,
2013-09-02 00:31:00,68.2,68.2,29.85,South,173,0.0,6.0,100,1.01,,---,0.21,VWS V13.00,2013-09-02 04:31:00,
2013-09-02 00:36:00,68.2,68.2,29.85,South,173,0.0,0.0,100,1.03,,---,0.23,VWS V13.00,2013-09-02 04:36:00,
2013-09-02 00:41:00,68.3,68.3,29.85,South,173,0.0,1.0,100,0.45,,---,0.23,VWS V13.00,2013-09-02 04:41:00,
2013-09-02 00:46:00,68.3,68.3,29.85,South,173,0.0,1.0,100,0.45,,---,0.23,VWS V13.00,2013-09-02 04:46:00,
2013-09-02 00:51:00,68.3,68.3,29.85,South,173,0.0,1.0,100,0.45,,---,0.23,VWS V13.00,2013-09-02 04:51:00,
2013-09-02 00:56:00,68.2,68.2,29.85,South,173,0.0,1.0,100,0.45,,---,0.23,VWS V13.00,2013-09-02 04:56:00,
2013-09-02 01:01:00,68.2,68.2,29.85,South,173,0.0,1.0,100,0.45,,---,0.23,VWS V13.00,2013-09-02 05:01:00,
2013-09-02 01:06:00,68.2,68.2,29.84,South,173,0.0,0.0,100,0.45,,---,0.23,VWS V13.00,2013-09-02 05:06:00,
2013-09-02 01:11:00,68.1,68.1,29.84,South,173,0.0,0.0,100,0.23,,---,0.23,VWS V13.00,2013-09-02 05:11:00,
2013-09-02 01:16:00,68.2,68.2,29.84,South,173,0.0,0.0,100,0.23,,---,0.23,VWS V13.00,2013-09-02 05:16:00,
2013-09-02 01:21:00,68.2,68.2,29.84,South,173,0.0,0.0,100,0.23,,---,0.23,VWS V13.00,2013-09-02 05:21:00,
2013-09-02 01:26:00,68.3,68.3,29.84,South,173,0.0,1.0,100,0.23,,---,0.23,VWS V13.00,2013-09-02 05:26:00,
2013-09-02 01:31:00,68.3,68.3,29.84,South,173,0.0,1.0,100,0.23,,---,0.23,VWS V13.00,2013-09-02 05:31:00,
2013-09-02 01:36:00,68.3,68.3,29.84,South,173,0.0,1.0,100,0.23,,---,0.23,VWS V13.00,2013-09-02 05:36:00,
2013-09-02 01:41:00,68.3,68.3,29.83,South,173,0.0,0.0,100,0.00,,---,0.23,VWS V13.00,2013-09-02 05:41:00,
2013-09-02 01:46:00,68.3,68.3,29.83,South,173,0.0,0.0,100,0.00,,---,0.23,VWS V13.00,2013-09-02 05:46:00,
2013-09-02 01:51:00,68.3,68.3,29.83,South,173,0.0,0.0,100,0.00,,---,0.23,VWS V13.00,2013-09-02 05:51:00,
2013-09-02 01:56:00,68.3,68.3,29.83,South,173,0.0,0.0,100,0.00,,---,0.23,VWS V13.00,2013-09-02 05:56:00,
2013-09-02 02:01:00,68.3,68.3,29.83,South,173,0.0,0.0,100,0.00,,---,0.23,VWS V13.00,2013-09-02 06:01:00,
2013-09-02 02:06:00,68.3,68.3,29.83,South,173,0.0,0.0,100,0.00,,---,0.23,VWS V13.00,2013-09-02 06:06:00,
2013-09-02 02:11:00,68.3,68.3,29.83,South,173,0.0,0.0,100,0.00,,---,0.23,VWS V13.00,2013-09-02 06:11:00,
2013-09-02 02:16:00,68.3,68.3,29.83,South,173,0.0,0.0,100,0.00,,---,0.23,VWS V13.00,2013-09-02 06:16:00,
2013-09-02 02:21:00,68.3,68.3,29.83,South,173,0.0,0.0,100,0.00,,---,0.23,VWS V13.00,2013-09-02 06:21:00,
2013-09-02 02:26:00,68.4,68.4,29.83,South,173,0.0,0.0,100,0.00,,---,0.23,VWS V13.00,2013-09-02 06:26:00,
2013-09-02 02:31:00,68.4,68.4,29.83,South,173,0.0,0.0,100,0.00,,---,0.23,VWS V13.00,2013-09-02 06:31:00,
2013-09-02 02:36:00,68.4,68.4,29.83,South,173,0.0,0.0,100,0.00,,---,0.23,VWS V13.00,2013-09-02 06:36:00,
2013-09-02 02:41:00,68.5,68.5,29.83,South,173,0.0,0.0,100,0.00,,---,0.23,VWS V13.00,2013-09-02 06:41:00,
2013-09-02 02:46:00,68.6,68.6,29.83,South,173,0.0,0.0,100,0.00,,---,0.23,VWS V13.00,2013-09-02 06:46:00,
2013-09-02 02:51:00,68.6,68.6,29.83,South,173,0.0,0.0,100,0.00,,---,0.23,VWS V13.00,2013-09-02 06:51:00,
2013-09-02 02:56:00,68.8,68.8,29.83,South,173,0.0,3.0,100,0.00,,---,0.23,VWS V13.00,2013-09-02 06:56:00,
2013-09-02 03:01:00,68.8,68.8,29.83,South,173,0.0,3.0,100,0.00,,---,0.23,VWS V13.00,2013-09-02 07:01:00,
2013-09-02 03:06:00,68.8,68.8,29.83,South,173,0.0,3.0,100,0.00,,---,0.23,VWS V13.00,2013-09-02 07:06:00,
2013-09-02 03:11:00,68.7,68.7,29.83,South,173,0.0,0.0,100,0.00,,---,0.23,VWS V13.00,2013-09-02 07:11:00,
2013-09-02 03:16:00,68.8,68.8,29.83,South,173,0.0,0.0,100,0.00,,---,0.23,VWS V13.00,2013-09-02 07:16:00,
2013-09-02 03:21:00,68.8,68.8,29.83,South,173,0.0,0.0,100,0.00,,---,0.23,VWS V13.00,2013-09-02 07:21:00,
2013-09-02 03:26:00,68.9,68.9,29.83,South,173,0.0,0.0,100,0.00,,---,0.23,VWS V13.00,2013-09-02 07:26:00,
2013-09-02 03:31:00,69.0,69.0,29.83,South,173,0.0,0.0,100,0.00,,---,0.23,VWS V13.00,2013-09-02 07:31:00,
2013-09-02 03:36:00,69.2,69.2,29.83,South,173,0.0,0.0,100,0.00,,---,0.23,VWS V13.00,2013-09-02 07:36:00,
2013-09-02 03:41:00,69.4,69.4,29.83,South,173,0.0,0.0,100,0.00,,---,0.23,VWS V13.00,2013-09-02 07:41:00,
2013-09-02 03:46:00,69.5,69.5,29.83,South,173,0.0,0.0,100,0.00,,---,0.23,VWS V13.00,2013-09-02 07:46:00,
2013-09-02 03:51:00,69.6,69.6,29.82,South,173,0.0,0.0,100,0.00,,---,0.23,VWS V13.00,2013-09-02 07:51:00,
2013-09-02 03:56:00,69.7,69.7,29.82,South,173,0.0,0.0,100,0.00,,---,0.23,VWS V13.00,2013-09-02 07:56:00,
2013-09-02 04:01:00,69.7,69.7,29.82,South,173,0.0,1.0,100,0.00,,---,0.23,VWS V13.00,2013-09-02 08:01:00,
2013-09-02 04:06:00,70.0,70.0,29.82,South,173,0.0,1.0,100,0.00,,---,0.23,VWS V13.00,2013-09-02 08:06:00,
2013-09-02 04:11:00,70.1,70.1,29.83,South,173,0.0,2.0,100,0.00,,---,0.23,VWS V13.00,2013-09-02 08:11:00,
2013-09-02 04:15:00,70.1,70.1,29.83,South,173,0.0,2.0,100,0.00,,---,0.23,VWS V13.00,2013-09-02 08:15:00,
2013-09-02 04:20:00,70.1,70.1,29.82,South,173,0.0,2.0,100,0.00,,---,0.23,VWS V13.00,2013-09-02 08:20:00,
2013-09-02 04:25:00,70.1,70.1,29.82,South,173,4.0,4.0,100,0.00,,---,0.23,VWS V13.00,2013-09-02 08:25:00,
2013-09-02 04:30:00,70.1,70.1,29.82,South,173,0.0,5.0,100,0.00,,---,0.23,VWS V13.00,2013-09-02 08:30:00,
2013-09-02 04:35:00,70.0,70.0,29.82,South,173,0.0,5.0,100,0.00,,---,0.23,VWS V13.00,2013-09-02 08:35:00,
2013-09-02 04:40:00,70.1,70.1,29.81,South,169,0.0,5.0,100,0.00,,---,0.23,VWS V13.00,2013-09-02 08:40:00,
2013-09-02 04:45:00,70.1,70.1,29.81,South,170,1.0,5.0,100,0.00,,---,0.23,VWS V13.00,2013-09-02 08:45:00,
2013-09-02 04:50:00,70.1,70.1,29.81,South,170,0.0,5.0,100,0.00,,---,0.23,VWS V13.00,2013-09-02 08:50:00,
2013-09-02 04:55:00,70.1,70.1,29.81,South,170,2.0,5.0,100,0.00,,---,0.23,VWS V13.00,2013-09-02 08:55:00,
2013-09-02 05:00:00,70.2,70.2,29.81,South,169,3.0,6.0,100,0.00,,---,0.23,VWS V13.00,2013-09-02 09:00:00,
2013-09-02 05:05:00,70.2,70.2,29.81,South,169,0.0,6.0,100,0.00,,---,0.23,VWS V13.00,2013-09-02 09:05:00,
2013-09-02 05:10:00,70.2,70.2,29.81,South,169,2.0,4.0,100,0.00,,---,0.23,VWS V13.00,2013-09-02 09:10:00,
2013-09-02 05:15:00,70.2,70.2,29.81,South,169,0.0,6.0,100,0.00,,---,0.23,VWS V13.00,2013-09-02 09:15:00,
2013-09-02 05:20:00,70.2,70.2,29.82,South,169,0.0,6.0,100,0.00,,---,0.23,VWS V13.00,2013-09-02 09:20:00,
2013-09-02 05:25:00,70.2,70.2,29.82,SSE,168,0.0,6.0,100,0.00,,---,0.23,VWS V13.00,2013-09-02 09:25:00,
2013-09-02 05:30:00,70.2,70.2,29.82,South,169,0.0,6.0,100,0.00,,---,0.23,VWS V13.00,2013-09-02 09:30:00,
2013-09-02 05:35:00,70.2,70.2,29.82,South,169,0.0,6.0,100,0.00,,---,0.23,VWS V13.00,2013-09-02 09:35:00,
2013-09-02 05:40:00,70.2,70.2,29.82,SSE,155,0.0,12.0,100,0.00,,---,0.23,VWS V13.00,2013-09-02 09:40:00,
2013-09-02 05:45:00,70.2,70.2,29.82,SSE,155,3.0,12.0,100,0.00,,---,0.23,VWS V13.00,2013-09-02 09:45:00,
2013-09-02 05:50:00,70.2,70.2,29.82,SSE,157,3.0,12.0,100,0.00,,---,0.23,VWS V13.00,2013-09-02 09:50:00,
2013-09-02 05:55:00,70.3,70.3,29.82,SSE,158,0.0,12.0,100,0.00,,---,0.23,VWS V13.00,2013-09-02 09:55:00,
2013-09-02 06:00:00,70.3,70.3,29.83,SSE,161,3.0,12.0,100,0.00,,---,0.23,VWS V13.00,2013-09-02 10:00:00,
2013-09-02 06:05:00,70.3,70.3,29.82,SSE,160,3.0,12.0,100,0.01,,---,0.24,VWS V13.00,2013-09-02 10:05:00,
2013-09-02 06:10:00,70.3,70.3,29.83,SSE,160,0.0,7.0,100,0.05,,---,0.29,VWS V13.00,2013-09-02 10:10:00,
2013-09-02 06:15:00,70.3,70.3,29.83,SSE,165,2.0,7.0,100,0.07,,---,0.30,VWS V13.00,2013-09-02 10:15:00,
2013-09-02 06:20:00,70.3,70.3,29.84,SSE,165,0.0,7.0,100,0.14,,---,0.38,VWS V13.00,2013-09-02 10:20:00,
2013-09-02 06:25:00,69.2,69.2,29.83,SSE,167,0.0,7.0,100,0.18,,---,0.42,VWS V13.00,2013-09-02 10:25:00,
2013-09-02 06:30:00,68.1,68.1,29.84,SSE,167,0.0,7.0,100,0.21,,---,0.45,VWS V13.00,2013-09-02 10:30:00,
2013-09-02 06:35:00,67.5,67.5,29.83,SSE,167,0.0,7.0,100,0.26,,---,0.49,VWS V13.00,2013-09-02 10:35:00,
2013-09-02 06:40:00,67.0,67.0,29.83,SSE,167,0.0,3.0,100,0.27,,---,0.51,VWS V13.00,2013-09-02 10:40:00,
2013-09-02 06:45:00,66.9,66.9,29.83,SSE,167,0.0,3.0,100,0.29,,---,0.52,VWS V13.00,2013-09-02 10:45:00,
2013-09-02 06:50:00,67.0,67.0,29.83,SSE,167,0.0,3.0,100,0.29,,---,0.53,VWS V13.00,2013-09-02 10:50:00,
2013-09-02 06:55:00,66.9,66.9,29.83,SSE,167,1.0,5.0,100,0.31,,---,0.54,VWS V13.00,2013-09-02 10:55:00,
2013-09-02 07:00:00,66.7,66.7,29.83,SSE,167,1.0,5.0,100,0.31,,---,0.54,VWS V13.00,2013-09-02 11:00:00,
2013-09-02 07:05:00,66.6,66.6,29.83,SSE,167,0.0,5.0,100,0.31,,---,0.54,VWS V13.00,2013-09-02 11:05:00,
2013-09-02 07:10:00,66.7,66.7,29.83,SSE,167,0.0,2.0,100,0.31,,---,0.55,VWS V13.00,2013-09-02 11:10:00,
2013-09-02 07:15:00,66.6,66.6,29.83,SSE,167,1.0,3.0,100,0.31,,---,0.55,VWS V13.00,2013-09-02 11:15:00,
2013-09-02 07:20:00,66.4,66.4,29.82,SSE,167,0.0,3.0,100,0.32,,---,0.56,VWS V13.00,2013-09-02 11:20:00,
2013-09-02 07:25:00,66.2,66.2,29.82,SSE,167,0.0,3.0,100,0.32,,---,0.56,VWS V13.00,2013-09-02 11:25:00,
2013-09-02 07:30:00,66.1,66.1,29.83,SSE,167,0.0,3.0,100,0.33,,---,0.57,VWS V13.00,2013-09-02 11:30:00,
2013-09-02 07:35:00,66.1,66.1,29.83,SSE,167,0.0,3.0,100,0.33,,---,0.57,VWS V13.00,2013-09-02 11:35:00,
2013-09-02 07:40:00,66.0,66.0,29.83,SSE,167,0.0,2.0,100,0.09,,---,0.58,VWS V13.00,2013-09-02 11:40:00,
2013-09-02 07:45:00,66.0,66.0,29.82,SSE,167,0.0,2.0,100,0.09,,---,0.58,VWS V13.00,2013-09-02 11:45:00,
2013-09-02 07:50:00,66.1,66.1,29.82,SSE,167,0.0,3.0,100,0.09,,---,0.58,VWS V13.00,2013-09-02 11:50:00,
2013-09-02 07:55:00,66.2,66.2,29.82,SSE,167,0.0,3.0,100,0.09,,---,0.58,VWS V13.00,2013-09-02 11:55:00,
2013-09-02 08:00:00,66.4,66.4,29.82,SSE,167,0.0,3.0,100,0.09,,---,0.58,VWS V13.00,2013-09-02 12:00:00,
2013-09-02 08:05:00,66.6,66.6,29.83,SSE,167,1.0,3.0,100,0.09,,---,0.58,VWS V13.00,2013-09-02 12:05:00,
2013-09-02 08:10:00,66.8,66.8,29.82,SSE,167,0.0,1.0,100,0.04,,---,0.58,VWS V13.00,2013-09-02 12:10:00,
2013-09-02 08:15:00,67.0,67.0,29.82,SSE,167,1.0,1.0,100,0.04,,---,0.58,VWS V13.00,2013-09-02 12:15:00,
2013-09-02 08:20:00,67.1,67.1,29.82,SSE,167,0.0,2.0,100,0.04,,---,0.58,VWS V13.00,2013-09-02 12:20:00,
2013-09-02 08:25:00,67.3,67.3,29.82,SSE,167,3.0,3.0,100,0.04,,---,0.58,VWS V13.00,2013-09-02 12:25:00,
2013-09-02 08:30:00,67.3,67.3,29.83,SSE,167,0.0,3.0,100,0.04,,---,0.58,VWS V13.00,2013-09-02 12:30:00,
2013-09-02 08:35:00,67.3,67.3,29.83,SSE,167,1.0,3.0,100,0.04,,---,0.58,VWS V13.00,2013-09-02 12:35:00,
2013-09-02 08:40:00,67.4,67.4,29.83,SSE,167,2.0,2.0,100,0.01,,---,0.58,VWS V13.00,2013-09-02 12:40:00,
2013-09-02 08:45:00,67.4,67.4,29.83,SSE,167,2.0,3.0,100,0.01,,---,0.58,VWS V13.00,2013-09-02 12:45:00,
2013-09-02 08:50:00,67.5,67.5,29.83,SSE,167,0.0,3.0,100,0.01,,---,0.58,VWS V13.00,2013-09-02 12:50:00,
2013-09-02 08:55:00,67.6,67.6,29.83,SSE,167,0.0,3.0,100,0.01,,---,0.58,VWS V13.00,2013-09-02 12:55:00,
2013-09-02 09:00:00,67.7,67.7,29.83,SSE,167,0.0,3.0,100,0.01,,---,0.58,VWS V13.00,2013-09-02 13:00:00,
2013-09-02 09:05:00,67.9,67.9,29.83,SSE,167,0.0,3.0,100,0.01,,---,0.58,VWS V13.00,2013-09-02 13:05:00,
2013-09-02 09:10:00,68.0,68.0,29.83,SSE,167,0.0,0.0,100,0.00,,---,0.58,VWS V13.00,2013-09-02 13:10:00,
2013-09-02 09:15:00,68.2,68.2,29.83,SSE,167,0.0,0.0,100,0.00,,---,0.58,VWS V13.00,2013-09-02 13:15:00,
2013-09-02 09:20:00,68.3,68.3,29.83,SSE,167,0.0,0.0,100,0.01,,---,0.59,VWS V13.00,2013-09-02 13:20:00,
2013-09-02 09:25:00,68.5,68.5,29.83,SSE,167,0.0,0.0,100,0.01,,---,0.59,VWS V13.00,2013-09-02 13:25:00,
2013-09-02 09:30:00,68.5,68.5,29.83,SSE,167,0.0,0.0,100,0.01,,---,0.59,VWS V13.00,2013-09-02 13:30:00,
2013-09-02 09:35:00,68.5,68.5,29.83,SSE,167,0.0,0.0,100,0.01,,---,0.59,VWS V13.00,2013-09-02 13:35:00,
2013-09-02 09:40:00,68.6,68.6,29.83,SSE,167,0.0,0.0,100,0.01,,---,0.59,VWS V13.00,2013-09-02 13:40:00,
2013-09-02 09:45:00,68.6,68.6,29.83,SSE,167,0.0,0.0,100,0.01,,---,0.59,VWS V13.00,2013-09-02 13:45:00,
2013-09-02 09:50:00,68.6,68.6,29.83,SSE,167,0.0,0.0,100,0.02,,---,0.60,VWS V13.00,2013-09-02 13:50:00,
2013-09-02 09:55:00,68.7,68.7,29.83,SSE,167,0.0,0.0,100,0.03,,---,0.61,VWS V13.00,2013-09-02 13:55:00,
2013-09-02 10:00:00,68.8,68.8,29.83,SSE,167,0.0,0.0,100,0.03,,---,0.61,VWS V13.00,2013-09-02 14:00:00,
2013-09-02 10:05:00,68.9,68.9,29.83,SSE,167,0.0,0.0,100,0.04,,---,0.62,VWS V13.00,2013-09-02 14:05:00,
2013-09-02 10:10:00,68.9,68.9,29.83,SSE,167,0.0,0.0,100,0.05,,---,0.63,VWS V13.00,2013-09-02 14:10:00,
2013-09-02 10:15:00,69.0,69.0,29.83,SSE,167,0.0,0.0,100,0.05,,---,0.63,VWS V13.00,2013-09-02 14:15:00,
2013-09-02 10:20:00,69.2,69.2,29.83,SSE,167,0.0,0.0,100,0.05,,---,0.63,VWS V13.00,2013-09-02 14:20:00,
2013-09-02 10:25:00,69.4,69.4,29.83,SSE,167,0.0,0.0,100,0.05,,---,0.63,VWS V13.00,2013-09-02 14:25:00,
2013-09-02 10:30:00,69.5,69.5,29.83,SSE,167,0.0,0.0,100,0.05,,---,0.63,VWS V13.00,2013-09-02 14:30:00,
2013-09-02 10:35:00,69.6,69.6,29.83,SSE,167,0.0,0.0,100,0.05,,---,0.63,VWS V13.00,2013-09-02 14:35:00,
2013-09-02 10:40:00,69.6,69.6,29.83,SSE,167,0.0,0.0,100,0.04,,---,0.63,VWS V13.00,2013-09-02 14:40:00,
2013-09-02 10:45:00,69.6,69.6,29.83,SSE,167,0.0,0.0,100,0.04,,---,0.63,VWS V13.00,2013-09-02 14:45:00,
2013-09-02 10:50:00,69.6,69.6,29.83,SSE,167,0.0,0.0,100,0.04,,---,0.63,VWS V13.00,2013-09-02 14:50:00,
2013-09-02 10:55:00,69.5,69.5,29.83,SSE,167,0.0,0.0,100,0.04,,---,0.63,VWS V13.00,2013-09-02 14:55:00,
2013-09-02 11:00:00,69.6,69.6,29.82,SSE,167,0.0,0.0,100,0.04,,---,0.63,VWS V13.00,2013-09-02 15:00:00,
2013-09-02 11:05:00,69.9,69.9,29.82,SSE,167,0.0,0.0,100,0.04,,---,0.63,VWS V13.00,2013-09-02 15:05:00,
2013-09-02 11:10:00,70.0,70.0,29.82,SSE,167,0.0,0.0,100,0.01,,---,0.63,VWS V13.00,2013-09-02 15:10:00,
2013-09-02 11:15:00,70.3,70.3,29.81,SSE,167,0.0,0.0,100,0.01,,---,0.63,VWS V13.00,2013-09-02 15:15:00,
2013-09-02 11:20:00,70.5,70.5,29.81,SSE,167,0.0,1.0,100,0.01,,---,0.63,VWS V13.00,2013-09-02 15:20:00,
2013-09-02 11:25:00,70.5,70.5,29.81,SSE,167,0.0,1.0,100,0.01,,---,0.63,VWS V13.00,2013-09-02 15:25:00,
2013-09-02 11:30:00,70.6,70.6,29.81,SSE,167,0.0,3.0,100,0.01,,---,0.63,VWS V13.00,2013-09-02 15:30:00,
2013-09-02 11:35:00,70.6,70.6,29.81,SSE,167,0.0,3.0,100,0.01,,---,0.63,VWS V13.00,2013-09-02 15:35:00,
2013-09-02 11:40:00,70.7,70.7,29.81,SSE,167,0.0,1.0,100,0.00,,---,0.63,VWS V13.00,2013-09-02 15:40:00,
2013-09-02 11:45:00,70.7,70.7,29.81,SSE,167,0.0,1.0,100,0.00,,---,0.63,VWS V13.00,2013-09-02 15:45:00,
2013-09-02 11:50:00,70.7,70.7,29.81,SSE,167,0.0,2.0,100,0.00,,---,0.63,VWS V13.00,2013-09-02 15:50:00,
2013-09-02 11:55:00,70.7,70.7,29.81,SSE,167,0.0,2.0,100,0.00,,---,0.63,VWS V13.00,2013-09-02 15:55:00,
2013-09-02 12:00:00,70.8,70.8,29.81,SSE,167,0.0,3.0,100,0.00,,---,0.63,VWS V13.00,2013-09-02 16:00:00,
2013-09-02 12:05:00,71.0,71.0,29.81,SSE,167,1.0,3.0,100,0.00,,---,0.63,VWS V13.00,2013-09-02 16:05:00,
2013-09-02 12:10:00,71.2,71.2,29.81,SSE,167,0.0,1.0,100,0.00,,---,0.63,VWS V13.00,2013-09-02 16:10:00,
2013-09-02 12:15:00,71.1,71.1,29.81,SSE,167,1.0,2.0,100,0.00,,---,0.63,VWS V13.00,2013-09-02 16:15:00,
2013-09-02 12:20:00,70.9,70.9,29.81,SSE,167,0.0,3.0,100,0.00,,---,0.63,VWS V13.00,2013-09-02 16:20:00,
2013-09-02 12:25:00,70.7,70.7,29.81,SSE,167,0.0,3.0,100,0.01,,---,0.65,VWS V13.00,2013-09-02 16:25:00,
2013-09-02 12:30:00,70.7,70.7,29.80,SSE,167,0.0,4.0,100,0.06,,---,0.70,VWS V13.00,2013-09-02 16:30:00,
2013-09-02 12:35:00,70.8,70.8,29.80,SSE,167,0.0,4.0,100,0.10,,---,0.74,VWS V13.00,2013-09-02 16:35:00,
2013-09-02 12:40:00,70.9,70.9,29.80,SSE,167,0.0,4.0,100,0.17,,---,0.81,VWS V13.00,2013-09-02 16:40:00,
2013-09-02 12:45:00,70.8,70.8,29.80,SSE,167,0.0,4.0,100,0.26,,---,0.91,VWS V13.00,2013-09-02 16:45:00,
2013-09-02 12:50:00,70.8,70.8,29.80,SSE,167,0.0,4.0,100,0.36,,---,1.00,VWS V13.00,2013-09-02 16:50:00,
2013-09-02 12:55:00,70.8,70.8,29.80,SSE,167,0.0,4.0,100,0.42,,---,1.07,VWS V13.00,2013-09-02 16:55:00,
2013-09-02 13:00:00,70.9,70.9,29.80,SSE,167,0.0,4.0,100,0.48,,---,1.13,VWS V13.00,2013-09-02 17:00:00,
2013-09-02 13:05:00,70.9,70.9,29.80,SSE,167,0.0,4.0,100,0.68,,---,1.33,VWS V13.00,2013-09-02 17:05:00,
2013-09-02 13:10:00,70.9,70.9,29.79,SSE,167,0.0,1.0,100,0.76,,---,1.40,VWS V13.00,2013-09-02 17:10:00,
2013-09-02 13:15:00,70.9,70.9,29.80,SSE,167,1.0,3.0,100,0.77,,---,1.40,VWS V13.00,2013-09-02 17:15:00,
2013-09-02 13:20:00,71.0,71.0,29.80,SSE,167,1.0,3.0,100,0.79,,---,1.43,VWS V13.00,2013-09-02 17:20:00,
2013-09-02 13:25:00,71.0,71.0,29.80,SSE,167,0.0,3.0,100,0.80,,---,1.43,VWS V13.00,2013-09-02 17:25:00,
2013-09-02 13:30:00,70.9,70.9,29.80,SSE,167,0.0,3.0,100,0.80,,---,1.43,VWS V13.00,2013-09-02 17:30:00,
2013-09-02 13:35:00,70.9,70.9,29.80,SSE,167,0.0,3.0,100,0.81,,---,1.44,VWS V13.00,2013-09-02 17:35:00,
2013-09-02 13:40:00,70.9,70.9,29.80,SSE,167,1.0,1.0,100,0.70,,---,1.45,VWS V13.00,2013-09-02 17:40:00,
2013-09-02 13:45:00,71.0,71.0,29.79,SSE,167,0.0,2.0,100,0.72,,---,1.47,VWS V13.00,2013-09-02 17:45:00,
2013-09-02 13:50:00,70.8,70.8,29.79,SSE,163,0.0,3.0,100,0.73,,---,1.48,VWS V13.00,2013-09-02 17:50:00,
2013-09-02 13:55:00,70.7,70.7,29.79,SSE,163,1.0,3.0,100,0.73,,---,1.48,VWS V13.00,2013-09-02 17:55:00,
2013-09-02 14:00:00,70.7,70.7,29.78,SSE,163,0.0,3.0,100,0.76,,---,1.51,VWS V13.00,2013-09-02 18:00:00,
2013-09-02 14:05:00,70.8,70.8,29.78,SSE,163,0.0,3.0,100,0.80,,---,1.55,VWS V13.00,2013-09-02 18:05:00,
2013-09-02 14:10:00,70.7,70.7,29.78,SSE,163,0.0,0.0,100,0.23,,---,1.58,VWS V13.00,2013-09-02 18:10:00,
2013-09-02 14:15:00,70.6,70.6,29.78,SSE,163,0.0,0.0,100,0.25,,---,1.60,VWS V13.00,2013-09-02 18:15:00,
2013-09-02 14:20:00,70.5,70.5,29.78,SSE,163,0.0,2.0,100,0.28,,---,1.62,VWS V13.00,2013-09-02 18:20:00,
2013-09-02 14:25:00,70.3,70.3,29.78,SSE,163,0.0,2.0,100,0.31,,---,1.65,VWS V13.00,2013-09-02 18:25:00,
2013-09-02 14:30:00,70.2,70.2,29.78,SSE,163,0.0,2.0,100,0.35,,---,1.70,VWS V13.00,2013-09-02 18:30:00,
2013-09-02 14:35:00,70.0,70.0,29.77,SSE,163,0.0,2.0,100,0.40,,---,1.75,VWS V13.00,2013-09-02 18:35:00,
2013-09-02 14:40:00,69.4,69.4,29.77,SSE,163,0.0,0.0,100,0.34,,---,1.78,VWS V13.00,2013-09-02 18:40:00,
2013-09-02 14:45:00,69.1,69.1,29.77,SSE,163,0.0,1.0,100,0.34,,---,1.79,VWS V13.00,2013-09-02 18:45:00,
2013-09-02 14:50:00,69.2,69.2,29.77,SSE,163,0.0,2.0,100,0.35,,---,1.79,VWS V13.00,2013-09-02 18:50:00,
2013-09-02 14:55:00,69.6,69.6,29.78,SSE,163,1.0,3.0,100,0.35,,---,1.79,VWS V13.00,2013-09-02 18:55:00,
2013-09-02 15:00:00,69.9,69.9,29.78,SSE,163,0.0,3.0,100,0.37,,---,1.81,VWS V13.00,2013-09-02 19:00:00,
2013-09-02 15:05:00,69.8,69.8,29.78,SSE,163,0.0,3.0,100,0.42,,---,1.86,VWS V13.00,2013-09-02 19:05:00,
2013-09-02 15:10:00,69.8,69.8,29.77,SSE,163,0.0,1.0,100,0.31,,---,1.86,VWS V13.00,2013-09-02 19:10:00,
2013-09-02 15:15:00,69.8,69.8,29.76,SSE,163,0.0,1.0,100,0.31,,---,1.86,VWS V13.00,2013-09-02 19:15:00,
2013-09-02 15:20:00,69.9,69.9,29.76,SSE,163,0.0,1.0,100,0.31,,---,1.86,VWS V13.00,2013-09-02 19:20:00,
2013-09-02 15:25:00,70.1,70.1,29.76,SSE,163,0.0,1.0,100,0.31,,---,1.86,VWS V13.00,2013-09-02 19:25:00,
2013-09-02 15:30:00,70.2,70.2,29.76,SSE,163,0.0,1.0,100,0.31,,---,1.86,VWS V13.00,2013-09-02 19:30:00,
2013-09-02 15:35:00,70.3,70.3,29.76,SSE,163,0.0,1.0,100,0.31,,---,1.86,VWS V13.00,2013-09-02 19:35:00,
2013-09-02 15:40:00,70.6,70.6,29.76,SSE,163,0.0,0.0,100,0.11,,---,1.86,VWS V13.00,2013-09-02 19:40:00,
2013-09-02 15:45:00,71.0,71.0,29.76,SSE,163,0.0,0.0,100,0.11,,---,1.86,VWS V13.00,2013-09-02 19:45:00,
2013-09-02 15:50:00,71.1,71.1,29.76,SSE,163,0.0,0.0,100,0.11,,---,1.86,VWS V13.00,2013-09-02 19:50:00,
2013-09-02 15:55:00,71.2,71.2,29.76,SSE,163,0.0,0.0,100,0.11,,---,1.86,VWS V13.00,2013-09-02 19:55:00,
2013-09-02 16:00:00,71.4,71.4,29.76,SSE,163,0.0,0.0,100,0.11,,---,1.86,VWS V13.00,2013-09-02 20:00:00,
2013-09-02 16:05:00,71.9,71.9,29.76,SSE,163,0.0,1.0,100,0.11,,---,1.86,VWS V13.00,2013-09-02 20:05:00,
2013-09-02 16:10:00,72.3,72.3,29.76,SSE,163,0.0,1.0,100,0.00,,---,1.86,VWS V13.00,2013-09-02 20:10:00,
2013-09-02 16:15:00,72.5,72.5,29.75,SSE,163,0.0,1.0,100,0.00,,---,1.86,VWS V13.00,2013-09-02 20:15:00,
2013-09-02 16:20:00,72.5,72.5,29.75,SSE,163,0.0,2.0,100,0.00,,---,1.86,VWS V13.00,2013-09-02 20:20:00,
2013-09-02 16:25:00,72.6,72.6,29.75,SSE,163,0.0,2.0,100,0.00,,---,1.86,VWS V13.00,2013-09-02 20:25:00,
2013-09-02 16:30:00,72.5,72.5,29.74,SSE,163,0.0,2.0,100,0.00,,---,1.86,VWS V13.00,2013-09-02 20:30:00,
2013-09-02 16:35:00,72.5,72.5,29.74,SSE,163,0.0,2.0,100,0.00,,---,1.86,VWS V13.00,2013-09-02 20:35:00,
2013-09-02 16:40:00,72.5,72.5,29.73,SSE,163,0.0,1.0,100,0.00,,---,1.86,VWS V13.00,2013-09-02 20:40:00,
2013-09-02 16:45:00,72.5,72.5,29.73,SSE,163,0.0,1.0,100,0.00,,---,1.86,VWS V13.00,2013-09-02 20:45:00,
2013-09-02 16:50:00,72.5,72.5,29.73,SSE,163,0.0,1.0,100,0.00,,---,1.86,VWS V13.00,2013-09-02 20:50:00,
2013-09-02 16:55:00,72.7,72.7,29.73,SSE,163,0.0,1.0,100,0.00,,---,1.86,VWS V13.00,2013-09-02 20:55:00,
2013-09-02 17:00:00,72.9,72.9,29.73,SSE,163,0.0,1.0,100,0.00,,---,1.86,VWS V13.00,2013-09-02 21:00:00,
2013-09-02 17:05:00,73.0,73.0,29.74,SSE,163,0.0,1.0,100,0.00,,---,1.86,VWS V13.00,2013-09-02 21:05:00,
2013-09-02 17:10:00,73.2,73.2,29.74,SSE,163,0.0,0.0,100,0.00,,---,1.86,VWS V13.00,2013-09-02 21:10:00,
2013-09-02 17:15:00,73.1,73.1,29.74,SSE,163,0.0,1.0,100,0.00,,---,1.86,VWS V13.00,2013-09-02 21:15:00,
2013-09-02 17:20:00,73.1,73.1,29.74,SSE,163,0.0,1.0,100,0.00,,---,1.86,VWS V13.00,2013-09-02 21:20:00,
2013-09-02 17:25:00,72.9,72.9,29.74,SSE,163,0.0,3.0,100,0.00,,---,1.86,VWS V13.00,2013-09-02 21:25:00,
2013-09-02 17:30:00,72.7,72.7,29.74,SSE,163,0.0,3.0,100,0.00,,---,1.86,VWS V13.00,2013-09-02 21:30:00,
2013-09-02 17:35:00,72.4,72.4,29.74,SSE,163,0.0,3.0,100,0.00,,---,1.86,VWS V13.00,2013-09-02 21:35:00,
2013-09-02 17:40:00,72.1,72.1,29.73,SSE,163,0.0,2.0,100,0.00,,---,1.86,VWS V13.00,2013-09-02 21:40:00,
2013-09-02 17:45:00,71.9,71.9,29.73,SSE,163,0.0,2.0,100,0.00,,---,1.86,VWS V13.00,2013-09-02 21:45:00,
2013-09-02 17:50:00,71.8,71.8,29.73,SSE,163,0.0,2.0,100,0.00,,---,1.86,VWS V13.00,2013-09-02 21:50:00,
2013-09-02 17:55:00,71.7,71.7,29.73,SSE,163,0.0,2.0,100,0.00,,---,1.86,VWS V13.00,2013-09-02 21:55:00,
2013-09-02 18:00:00,71.4,71.4,29.73,SSE,163,0.0,2.0,100,0.00,,---,1.86,VWS V13.00,2013-09-02 22:00:00,
2013-09-02 18:05:00,71.3,71.3,29.73,SSE,163,0.0,2.0,100,0.00,,---,1.86,VWS V13.00,2013-09-02 22:05:00,
2013-09-02 18:10:00,71.4,71.4,29.73,SSE,163,0.0,0.0,100,0.00,,---,1.86,VWS V13.00,2013-09-02 22:10:00,
2013-09-02 18:15:00,71.4,71.4,29.73,SSE,163,0.0,0.0,100,0.00,,---,1.86,VWS V13.00,2013-09-02 22:15:00,
2013-09-02 18:20:00,71.4,71.4,29.72,SSE,163,0.0,0.0,100,0.00,,---,1.86,VWS V13.00,2013-09-02 22:20:00,
2013-09-02 18:25:00,71.1,71.1,29.73,SSE,163,0.0,1.0,100,0.00,,---,1.86,VWS V13.00,2013-09-02 22:25:00,
2013-09-02 18:30:00,70.9,70.9,29.72,SSE,163,0.0,1.0,100,0.00,,---,1.86,VWS V13.00,2013-09-02 22:30:00,
2013-09-02 18:35:00,70.7,70.7,29.72,SSE,163,0.0,1.0,100,0.00,,---,1.86,VWS V13.00,2013-09-02 22:35:00,
2013-09-02 18:40:00,70.6,70.6,29.72,SSE,163,0.0,0.0,100,0.00,,---,1.86,VWS V13.00,2013-09-02 22:40:00,
2013-09-02 18:45:00,70.4,70.4,29.72,SSE,163,0.0,1.0,100,0.00,,---,1.86,VWS V13.00,2013-09-02 22:45:00,
2013-09-02 18:50:00,70.4,70.4,29.73,SSE,163,0.0,1.0,100,0.00,,---,1.86,VWS V13.00,2013-09-02 22:50:00,
2013-09-02 18:55:00,70.3,70.3,29.73,SSE,163,0.0,1.0,100,0.00,,---,1.86,VWS V13.00,2013-09-02 22:55:00,
2013-09-02 19:00:00,70.3,70.3,29.73,SSE,163,0.0,1.0,100,0.00,,---,1.86,VWS V13.00,2013-09-02 23:00:00,
2013-09-02 19:05:00,70.3,70.3,29.73,SSE,163,0.0,1.0,100,0.00,,---,1.86,VWS V13.00,2013-09-02 23:05:00,
2013-09-02 19:10:00,70.3,70.3,29.73,SSE,163,0.0,0.0,100,0.00,,---,1.86,VWS V13.00,2013-09-02 23:10:00,
2013-09-02 19:15:00,70.3,70.3,29.73,SSE,163,0.0,1.0,100,0.00,,---,1.86,VWS V13.00,2013-09-02 23:15:00,
2013-09-02 19:20:00,70.3,70.3,29.74,SSE,163,0.0,1.0,100,0.00,,---,1.86,VWS V13.00,2013-09-02 23:20:00,
2013-09-02 19:25:00,70.3,70.3,29.74,SSE,163,0.0,1.0,100,0.00,,---,1.86,VWS V13.00,2013-09-02 23:25:00,
2013-09-02 19:30:00,70.3,70.3,29.74,SSE,163,0.0,1.0,100,0.00,,---,1.86,VWS V13.00,2013-09-02 23:30:00,
2013-09-02 19:35:00,70.4,70.4,29.74,SSE,163,0.0,1.0,100,0.00,,---,1.86,VWS V13.00,2013-09-02 23:35:00,
2013-09-02 19:40:00,70.4,70.4,29.74,SSE,163,0.0,0.0,100,0.00,,---,1.86,VWS V13.00,2013-09-02 23:40:00,
2013-09-02 19:45:00,70.4,70.4,29.74,SSE,163,0.0,0.0,100,0.00,,---,1.86,VWS V13.00,2013-09-02 23:45:00,
2013-09-02 19:50:00,70.4,70.4,29.74,SSE,163,0.0,0.0,100,0.00,,---,1.86,VWS V13.00,2013-09-02 23:50:00,
2013-09-02 19:55:00,70.4,70.4,29.74,SSE,163,0.0,1.0,100,0.00,,---,1.86,VWS V13.00,2013-09-02 23:55:00,
2013-09-02 20:00:00,70.4,70.4,29.74,SSE,163,0.0,1.0,100,0.00,,---,1.86,VWS V13.00,2013-09-03 00:00:00,
2013-09-02 20:05:00,70.4,70.4,29.74,SSE,163,0.0,1.0,100,0.01,,---,1.87,VWS V13.00,2013-09-03 00:05:00,
2013-09-02 20:10:00,70.4,70.4,29.74,SSE,163,0.0,0.0,100,0.01,,---,1.87,VWS V13.00,2013-09-03 00:10:00,
2013-09-02 20:15:00,70.5,70.5,29.74,SSE,163,0.0,1.0,100,0.01,,---,1.87,VWS V13.00,2013-09-03 00:15:00,
2013-09-02 20:20:00,70.5,70.5,29.73,SSE,163,0.0,1.0,100,0.01,,---,1.87,VWS V13.00,2013-09-03 00:20:00,
2013-09-02 20:25:00,70.6,70.6,29.73,SSE,163,0.0,1.0,100,0.01,,---,1.87,VWS V13.00,2013-09-03 00:25:00,
2013-09-02 20:30:00,70.5,70.5,29.73,SSE,163,0.0,1.0,100,0.01,,---,1.87,VWS V13.00,2013-09-03 00:30:00,
2013-09-02 20:35:00,70.4,70.4,29.73,SSE,163,0.0,1.0,100,0.01,,---,1.87,VWS V13.00,2013-09-03 00:35:00,
2013-09-02 20:40:00,70.4,70.4,29.73,SSE,163,0.0,1.0,100,0.01,,---,1.87,VWS V13.00,2013-09-03 00:40:00,
2013-09-02 20:45:00,70.4,70.4,29.73,SSE,163,0.0,1.0,100,0.01,,---,1.87,VWS V13.00,2013-09-03 00:45:00,
2013-09-02 20:50:00,70.5,70.5,29.74,SSE,163,0.0,1.0,100,0.01,,---,1.87,VWS V13.00,2013-09-03 00:50:00,
2013-09-02 20:55:00,70.4,70.4,29.73,SSE,163,0.0,1.0,100,0.01,,---,1.87,VWS V13.00,2013-09-03 00:55:00,
2013-09-02 21:00:00,70.4,70.4,29.74,SSE,163,0.0,1.0,100,0.01,,---,1.87,VWS V13.00,2013-09-03 01:00:00,
2013-09-02 21:05:00,70.4,70.4,29.74,SSE,163,0.0,1.0,100,0.01,,---,1.87,VWS V13.00,2013-09-03 01:05:00,
2013-09-02 21:10:00,70.5,70.5,29.74,SSE,163,0.0,0.0,100,0.00,,---,1.87,VWS V13.00,2013-09-03 01:10:00,
2013-09-02 21:15:00,70.4,70.4,29.75,SSE,163,0.0,0.0,100,0.00,,---,1.87,VWS V13.00,2013-09-03 01:15:00,
2013-09-02 21:20:00,70.3,70.3,29.75,SSE,163,0.0,0.0,100,0.00,,---,1.87,VWS V13.00,2013-09-03 01:20:00,
2013-09-02 21:25:00,70.3,70.3,29.75,SSE,163,0.0,0.0,100,0.00,,---,1.87,VWS V13.00,2013-09-03 01:25:00,
2013-09-02 21:30:00,70.2,70.2,29.75,SSE,163,0.0,0.0,100,0.00,,---,1.87,VWS V13.00,2013-09-03 01:30:00,
2013-09-02 21:35:00,70.1,70.1,29.75,SSE,163,0.0,1.0,100,0.00,,---,1.87,VWS V13.00,2013-09-03 01:35:00,
2013-09-02 21:40:00,70.0,70.0,29.75,SSE,163,0.0,0.0,100,0.00,,---,1.87,VWS V13.00,2013-09-03 01:40:00,
2013-09-02 21:45:00,70.0,70.0,29.75,SSE,163,0.0,0.0,100,0.00,,---,1.87,VWS V13.00,2013-09-03 01:45:00,
2013-09-02 21:50:00,69.9,69.9,29.75,SSE,163,0.0,0.0,100,0.00,,---,1.87,VWS V13.00,2013-09-03 01:50:00,
2013-09-02 21:55:00,69.9,69.9,29.75,SSE,163,0.0,0.0,100,0.00,,---,1.87,VWS V13.00,2013-09-03 01:55:00,
2013-09-02 22:00:00,69.8,69.8,29.75,SSE,163,0.0,0.0,100,0.00,,---,1.87,VWS V13.00,2013-09-03 02:00:00,
2013-09-02 22:05:00,69.8,69.8,29.75,SSE,163,0.0,0.0,100,0.00,,---,1.87,VWS V13.00,2013-09-03 02:05:00,
2013-09-02 22:10:00,69.7,69.7,29.75,SSE,163,0.0,0.0,100,0.00,,---,1.87,VWS V13.00,2013-09-03 02:10:00,
2013-09-02 22:15:00,69.7,69.7,29.75,SSE,163,0.0,0.0,100,0.00,,---,1.87,VWS V13.00,2013-09-03 02:15:00,
2013-09-02 22:20:00,69.6,69.6,29.75,SSE,163,0.0,0.0,100,0.00,,---,1.87,VWS V13.00,2013-09-03 02:20:00,
2013-09-02 22:25:00,69.6,69.6,29.74,SSE,163,0.0,0.0,100,0.00,,---,1.87,VWS V13.00,2013-09-03 02:25:00,
2013-09-02 22:30:00,69.6,69.6,29.74,SSE,163,0.0,0.0,100,0.00,,---,1.87,VWS V13.00,2013-09-03 02:30:00,
2013-09-02 22:35:00,69.6,69.6,29.75,SSE,163,0.0,0.0,100,0.00,,---,1.87,VWS V13.00,2013-09-03 02:35:00,
2013-09-02 22:40:00,69.6,69.6,29.74,SSE,163,0.0,0.0,100,0.00,,---,1.87,VWS V13.00,2013-09-03 02:40:00,
2013-09-02 22:45:00,69.5,69.5,29.74,SSE,163,0.0,0.0,100,0.00,,---,1.87,VWS V13.00,2013-09-03 02:45:00,
2013-09-02 22:50:00,69.6,69.6,29.74,SSE,163,0.0,0.0,100,0.00,,---,1.87,VWS V13.00,2013-09-03 02:50:00,
2013-09-02 22:55:00,69.6,69.6,29.74,SSE,163,0.0,0.0,100,0.00,,---,1.87,VWS V13.00,2013-09-03 02:55:00,
2013-09-02 23:00:00,69.5,69.5,29.74,SSE,163,0.0,0.0,100,0.00,,---,1.87,VWS V13.00,2013-09-03 03:00:00,
2013-09-02 23:05:00,69.5,69.5,29.74,SSE,163,0.0,0.0,100,0.00,,---,1.87,VWS V13.00,2013-09-03 03:05:00,
2013-09-02 23:10:00,69.5,69.5,29.75,SSE,163,0.0,0.0,100,0.00,,---,1.87,VWS V13.00,2013-09-03 03:10:00,
2013-09-02 23:15:00,69.5,69.5,29.75,SSE,163,0.0,0.0,100,0.00,,---,1.87,VWS V13.00,2013-09-03 03:15:00,
2013-09-02 23:20:00,69.5,69.5,29.74,SSE,163,0.0,0.0,100,0.00,,---,1.87,VWS V13.00,2013-09-03 03:20:00,
2013-09-02 23:25:00,69.5,69.5,29.74,SSE,163,0.0,0.0,100,0.00,,---,1.87,VWS V13.00,2013-09-03 03:25:00,
2013-09-02 23:30:00,69.5,69.5,29.75,SSE,163,0.0,0.0,100,0.00,,---,1.87,VWS V13.00,2013-09-03 03:30:00,
2013-09-02 23:35:00,69.5,69.5,29.75,SSE,163,0.0,0.0,100,0.00,,---,1.87,VWS V13.00,2013-09-03 03:35:00,
2013-09-02 23:40:00,69.5,69.5,29.76,SSE,163,0.0,3.0,100,0.00,,---,1.87,VWS V13.00,2013-09-03 03:40:00,
2013-09-02 23:45:00,69.2,69.2,29.75,SSE,163,0.0,4.0,100,0.01,,---,1.88,VWS V13.00,2013-09-03 03:45:00,
2013-09-02 23:50:00,68.7,68.7,29.75,SSE,163,0.0,4.0,100,0.01,,---,1.88,VWS V13.00,2013-09-03 03:50:00,
2013-09-02 23:55:00,68.2,68.2,29.75,SSE,163,0.0,4.0,100,0.01,,---,1.88,VWS V13.00,2013-09-03 03:55:00,